Terminal Aerodrome Forecast
Issued by NWS

Home | Current Version | Previous Version | Text Only | Print | Product List | Glossary On
Versions: 1 2 3 4 5 6 7 8 9 10 11 12 13 14 15 16 17 18 19 20 21 22 23 24 25 26 27 28 29 30 31 32 33 34 35
000
FTUS45 KSLC 242337
TAFENV
TAF
KENV 242337Z 2500/2524 08007KT P6SM SCT100 BKN150
     FM250300 24007KT P6SM VCSH SCT050 BKN070
     FM250700 32020G35KT 3SM -SHSN SCT010 BKN025
     FM250900 32020G32KT P6SM VCSH SCT010 BKN050
     FM251400 34020G35KT P6SM SCT050 BKN080
      AMD LTD TO CLD VIS AND WIND=

USA.gov is the U.S. government's official web portal to all federal, state and local government web resources and services.